Terminal Aerodrome Forecast
Issued by NWS

Home | Current Version | Previous Version | Text Only | Print | Product List | Glossary Off
Versions: 1 2 3 4 5 6 7 8 9 10 11 12

548
FTUS43 KMPX 262335
TAFRNH
TAF
KRNH 262335Z 2700/2724 34008KT P6SM SCT008 OVC012
     FM271800 30011G18KT P6SM BKN020
     FM272100 30011G18KT P6SM BKN035=

USA.gov is the U.S. government's official web portal to all federal, state and local government web resources and services.